Time;durP1;ratioP1;P1;durP2;ratioP2;P2;SDS_P1;SDS_P2;PMS_P1;PMS_P2;Temp;Humidity;BMP_temperature;BMP_pressure;BME280_temperature;BME280_humidity;BME280_pressure;Samples;Min_cycle;Max_cycle;Signal;HPM_P1;HPM_P2
2023/04/21 00:00:26;;;;;;;5.70;3.75;;;6.70;99.90;;;;;;5015392;28;20080;-74
2023/04/21 00:02:55;;;;;;;5.75;3.67;;;6.70;99.90;;;;;;5010790;28;20061;-74
2023/04/21 00:05:20;;;;;;;7.70;4.30;;;6.70;99.90;;;;;;5009028;28;20033;-74
2023/04/21 00:07:48;;;;;;;10.55;3.92;;;6.70;99.90;;;;;;5009680;28;20113;-74
2023/04/21 00:10:23;;;;;;;7.65;3.92;;;6.70;99.90;;;;;;5010207;28;20054;-74
2023/04/21 00:12:49;;;;;;;7.50;4.15;;;6.60;99.90;;;;;;5011639;28;20114;-74
2023/04/21 00:15:14;;;;;;;5.72;3.63;;;6.60;99.90;;;;;;5007424;28;20158;-74
2023/04/21 00:17:40;;;;;;;6.18;3.80;;;6.60;99.90;;;;;;5010801;28;20029;-74
2023/04/21 00:20:09;;;;;;;9.07;4.28;;;6.60;99.90;;;;;;5005955;28;20022;-74
2023/04/21 00:22:38;;;;;;;7.00;3.88;;;6.60;99.90;;;;;;5008459;28;20105;-74
2023/04/21 00:25:06;;;;;;;5.68;3.80;;;6.50;99.90;;;;;;5007056;28;20135;-74
2023/04/21 00:27:32;;;;;;;6.75;3.60;;;6.50;99.90;;;;;;5010835;28;20418;-74
2023/04/21 00:29:58;;;;;;;5.18;3.53;;;6.50;99.90;;;;;;5005284;28;20061;-74
2023/04/21 00:32:23;;;;;;;6.28;3.90;;;6.50;99.90;;;;;;5009744;28;20033;-74
2023/04/21 00:34:52;;;;;;;4.93;3.40;;;6.50;99.90;;;;;;5005509;28;20030;-74
2023/04/21 00:37:21;;;;;;;6.28;3.67;;;6.40;99.90;;;;;;5003684;28;20037;-73
2023/04/21 00:39:52;;;;;;;5.18;3.35;;;6.40;99.90;;;;;;5015043;28;20108;-74
2023/04/21 00:42:18;;;;;;;7.13;3.58;;;6.40;99.90;;;;;;5011550;28;20081;-73
2023/04/21 00:44:43;;;;;;;6.70;4.05;;;6.40;99.90;;;;;;5010019;28;20033;-73
2023/04/21 00:47:10;;;;;;;5.28;3.90;;;6.30;99.90;;;;;;5017222;28;20044;-74
2023/04/21 00:49:38;;;;;;;5.75;3.67;;;6.30;99.90;;;;;;5011188;28;20085;-74
2023/04/21 00:52:05;;;;;;;6.18;3.55;;;6.30;99.90;;;;;;5004496;28;20028;-74
2023/04/21 00:54:54;;;;;;;5.63;3.70;;;6.30;99.90;;;;;;5012515;28;20463;-73
2023/04/21 00:57:20;;;;;;;5.82;3.58;;;6.20;99.90;;;;;;4994466;28;20164;-74
2023/04/21 00:59:49;;;;;;;5.82;3.45;;;6.20;99.90;;;;;;5010283;28;20125;-74
2023/04/21 01:02:27;;;;;;;6.63;3.88;;;6.10;99.90;;;;;;5023892;28;20022;-74
2023/04/21 01:05:06;;;;;;;6.07;3.78;;;6.10;99.90;;;;;;5008534;28;20466;-74
2023/04/21 01:07:31;;;;;;;5.40;3.70;;;6.10;99.90;;;;;;5006714;28;20014;-73
2023/04/21 01:09:58;;;;;;;6.95;4.47;;;6.00;99.90;;;;;;5011244;28;20505;-74
2023/04/21 01:12:27;;;;;;;9.13;4.28;;;6.00;99.90;;;;;;5009764;28;20080;-74
2023/04/21 01:14:53;;;;;;;7.57;5.10;;;5.90;99.90;;;;;;5004710;28;20164;-74
2023/04/21 01:17:18;;;;;;;6.78;3.88;;;5.90;99.90;;;;;;5008915;28;20058;-74
2023/04/21 01:19:45;;;;;;;9.15;5.10;;;5.90;99.90;;;;;;5021803;28;20423;-74
2023/04/21 01:22:12;;;;;;;6.88;4.85;;;5.80;99.90;;;;;;5008509;28;20108;-74
2023/04/21 01:24:38;;;;;;;6.95;4.47;;;5.80;99.90;;;;;;5014445;28;20486;-74
2023/04/21 01:27:11;;;;;;;6.68;4.25;;;5.80;99.90;;;;;;5006482;28;20026;-74
2023/04/21 01:29:38;;;;;;;6.82;4.15;;;5.70;99.90;;;;;;5024557;28;20061;-73
2023/04/21 01:32:25;;;;;;;10.85;4.28;;;5.70;99.90;;;;;;5012197;28;20116;-73
2023/04/21 01:34:51;;;;;;;8.30;4.53;;;5.60;99.90;;;;;;5009063;28;20040;-74
2023/04/21 01:37:23;;;;;;;7.35;4.93;;;5.60;99.90;;;;;;4999050;28;20546;-74
2023/04/21 01:39:54;;;;;;;8.02;5.18;;;5.60;99.90;;;;;;5003841;28;20038;-74
2023/04/21 01:42:22;;;;;;;6.07;4.15;;;5.50;99.90;;;;;;5019611;28;20459;-74
2023/04/21 01:44:52;;;;;;;7.00;5.10;;;5.50;99.90;;;;;;5012480;28;20066;-75
2023/04/21 01:47:24;;;;;;;7.78;5.28;;;5.50;99.90;;;;;;5023723;28;20030;-73
2023/04/21 01:49:51;;;;;;;7.85;4.85;;;5.50;99.90;;;;;;5005780;28;20034;-74
2023/04/21 01:52:17;;;;;;;8.02;5.32;;;5.40;99.90;;;;;;5009512;28;20548;-74
2023/04/21 01:54:45;;;;;;;5.80;3.72;;;5.40;99.90;;;;;;5010443;28;20065;-73
2023/04/21 01:57:11;;;;;;;9.18;4.72;;;5.40;99.90;;;;;;5023908;28;20041;-74
2023/04/21 01:59:36;;;;;;;5.35;4.40;;;5.40;99.90;;;;;;5010279;28;20026;-73
2023/04/21 02:02:08;;;;;;;5.75;3.72;;;5.40;99.90;;;;;;5008160;28;20057;-73
2023/04/21 02:04:43;;;;;;;5.22;3.92;;;5.30;99.90;;;;;;5002911;28;20025;-74
2023/04/21 02:07:09;;;;;;;5.38;3.72;;;5.20;99.90;;;;;;5007301;28;20030;-73
2023/04/21 02:09:35;;;;;;;8.80;4.53;;;5.20;99.90;;;;;;5009129;28;20614;-74
2023/04/21 02:12:04;;;;;;;7.45;3.90;;;5.10;99.90;;;;;;5010098;28;20030;-74
2023/04/21 02:14:29;;;;;;;8.00;3.78;;;5.10;99.90;;;;;;5010611;28;20162;-73
2023/04/21 02:16:58;;;;;;;7.68;4.10;;;5.10;99.90;;;;;;5011687;28;20468;-73
2023/04/21 02:19:42;;;;;;;7.10;4.10;;;5.00;99.90;;;;;;5011991;28;20026;-74
2023/04/21 02:22:09;;;;;;;;;;;5.00;99.90;;;;;;5012017;28;20443;-73
2023/04/21 02:24:38;;;;;;;6.13;3.72;;;4.90;99.90;;;;;;5009179;28;20349;-73
2023/04/21 02:27:06;;;;;;;6.85;4.30;;;4.90;99.90;;;;;;5011933;28;20034;-73
2023/04/21 02:29:38;;;;;;;7.85;4.30;;;4.90;99.90;;;;;;5005442;28;20034;-73
2023/04/21 02:32:04;;;;;;;6.57;4.43;;;4.90;99.90;;;;;;5013721;28;20601;-74
2023/04/21 02:34:29;;;;;;;8.63;4.55;;;4.90;99.90;;;;;;5009306;28;20040;-74
2023/04/21 02:37:01;;;;;;;7.28;4.70;;;4.90;99.90;;;;;;5008252;28;20097;-73
2023/04/21 02:39:39;;;;;;;6.63;3.58;;;4.80;99.90;;;;;;5012563;28;20041;-74
2023/04/21 02:42:10;;;;;;;7.13;4.53;;;4.80;99.90;;;;;;5008918;28;20113;-74
2023/04/21 02:44:37;;;;;;;5.80;3.97;;;4.80;99.90;;;;;;5008373;28;20026;-73
2023/04/21 02:47:06;;;;;;;6.88;4.35;;;4.80;99.90;;;;;;5011897;28;20159;-74
2023/04/21 02:49:38;;;;;;;8.55;4.60;;;4.80;99.90;;;;;;5008853;28;20026;-73
2023/04/21 02:52:04;;;;;;;8.35;4.45;;;4.80;99.90;;;;;;5007976;28;21517;-73
2023/04/21 02:54:29;;;;;;;7.65;5.28;;;4.80;99.90;;;;;;5012472;28;20029;-74
2023/04/21 02:56:55;;;;;;;6.32;4.22;;;4.70;99.90;;;;;;5010863;28;20034;-75
2023/04/21 02:59:23;;;;;;;9.50;5.03;;;4.80;99.90;;;;;;5001887;28;20026;-75
2023/04/21 03:01:52;;;;;;;7.88;4.50;;;4.80;99.90;;;;;;5007442;28;20030;-75
2023/04/21 03:04:23;;;;;;;7.57;4.78;;;4.80;99.90;;;;;;5009874;28;20053;-74
2023/04/21 03:06:48;;;;;;;6.85;4.20;;;4.80;99.90;;;;;;5004548;28;20030;-75
2023/04/21 03:09:20;;;;;;;6.07;3.75;;;4.80;99.90;;;;;;5010655;28;20040;-74
2023/04/21 03:11:48;;;;;;;8.48;4.03;;;4.70;99.90;;;;;;5008750;28;20045;-74
2023/04/21 03:14:17;;;;;;;7.15;4.03;;;4.80;99.90;;;;;;5010288;28;20046;-74
2023/04/21 03:16:42;;;;;;;7.03;4.10;;;4.80;99.90;;;;;;5011471;28;20037;-74
2023/04/21 03:19:08;;;;;;;7.60;4.60;;;4.70;99.90;;;;;;5009915;28;20375;-75
2023/04/21 03:21:37;;;;;;;7.07;4.72;;;4.70;99.90;;;;;;5009403;28;20034;-74
2023/04/21 03:24:04;;;;;;;8.07;4.43;;;4.70;99.90;;;;;;5010492;28;20022;-74
2023/04/21 03:26:30;;;;;;;7.45;4.65;;;4.70;99.90;;;;;;5001150;28;20109;-73
2023/04/21 03:28:55;;;;;;;9.90;4.80;;;4.70;99.90;;;;;;5007214;28;20113;-74
2023/04/21 03:31:24;;;;;;;13.63;7.05;;;4.70;99.90;;;;;;5011169;28;20401;-74
2023/04/21 03:33:50;;;;;;;15.07;7.82;;;4.70;99.90;;;;;;5009252;28;20052;-74
2023/04/21 03:36:16;;;;;;;11.45;7.50;;;4.70;99.90;;;;;;5007778;28;20034;-74
2023/04/21 03:38:44;;;;;;;11.88;7.57;;;4.70;99.90;;;;;;5011755;28;20026;-74
2023/04/21 03:41:13;;;;;;;11.50;7.55;;;4.70;99.90;;;;;;5022733;28;20058;-74
2023/04/21 03:43:39;;;;;;;9.93;6.97;;;4.70;99.90;;;;;;5005308;28;20092;-74
2023/04/21 03:46:15;;;;;;;11.38;6.22;;;4.70;99.90;;;;;;5023277;28;20048;-74
2023/04/21 03:48:47;;;;;;;14.95;6.43;;;4.70;99.90;;;;;;5005306;28;20076;-74
2023/04/21 03:51:14;;;;;;;10.10;5.38;;;4.70;99.90;;;;;;5015909;28;20025;-74
2023/04/21 03:53:40;;;;;;;9.38;6.05;;;4.60;99.90;;;;;;5007392;28;20026;-75
2023/04/21 03:56:05;;;;;;;9.88;6.43;;;4.70;99.90;;;;;;5011326;28;20505;-74
2023/04/21 03:58:31;;;;;;;13.63;6.30;;;4.60;99.90;;;;;;5017590;28;20027;-74
2023/04/21 04:01:06;;;;;;;10.80;6.40;;;4.60;99.90;;;;;;5010594;28;20038;-75
2023/04/21 04:03:41;;;;;;;9.52;6.78;;;4.60;99.90;;;;;;5008300;28;20507;-75
2023/04/21 04:06:13;;;;;;;11.32;7.22;;;4.60;99.90;;;;;;5008776;28;20418;-75
2023/04/21 04:08:38;;;;;;;11.40;7.53;;;4.60;99.90;;;;;;5011121;28;20037;-74
2023/04/21 04:11:22;;;;;;;10.25;7.18;;;4.60;99.90;;;;;;5012303;28;20006;-74
2023/04/21 04:13:51;;;;;;;;;;;4.60;99.90;;;;;;5011485;28;20112;-73
2023/04/21 04:16:29;;;;;;;11.85;8.07;;;4.60;99.90;;;;;;5008738;28;19920;-74
2023/04/21 04:18:57;;;;;;;15.88;9.43;;;4.60;99.90;;;;;;5008077;28;20030;-74
2023/04/21 04:21:30;;;;;;;15.93;9.27;;;4.60;99.90;;;;;;5011479;28;20024;-74
2023/04/21 04:23:59;;;;;;;16.80;10.25;;;4.60;99.90;;;;;;5009992;28;20078;-74
2023/04/21 04:26:25;;;;;;;15.88;10.05;;;4.60;99.90;;;;;;5005216;28;20072;-74
2023/04/21 04:29:01;;;;;;;16.55;10.60;;;4.50;99.90;;;;;;5013732;28;20367;-74
2023/04/21 04:31:33;;;;;;;17.83;11.50;;;4.40;99.90;;;;;;5024388;28;20036;-75
2023/04/21 04:34:02;;;;;;;19.75;11.48;;;4.40;99.90;;;;;;5004219;28;20026;-74
2023/04/21 04:36:28;;;;;;;20.95;12.13;;;4.40;99.90;;;;;;5007611;28;20031;-75
2023/04/21 04:39:00;;;;;;;18.05;11.77;;;4.40;99.90;;;;;;5007251;28;20127;-75
2023/04/21 04:41:29;;;;;;;19.98;10.93;;;4.30;99.90;;;;;;5009965;28;20021;-75
2023/04/21 04:44:03;;;;;;;16.20;10.25;;;4.30;99.90;;;;;;5010555;28;20586;-76
2023/04/21 04:46:32;;;;;;;16.27;10.07;;;4.30;99.90;;;;;;5016982;22;20344;-76
2023/04/21 04:49:00;;;;;;;16.33;10.23;;;4.30;99.90;;;;;;4992230;28;20061;-76
2023/04/21 04:51:26;;;;;;;20.92;11.75;;;4.30;99.90;;;;;;5011705;28;20026;-76
2023/04/21 04:53:54;;;;;;;20.85;11.82;;;4.30;99.90;;;;;;4995217;28;20029;-76
2023/04/21 04:56:39;;;;;;;18.08;10.38;;;4.30;99.90;;;;;;4994364;28;20025;-76
2023/04/21 04:59:05;;;;;;;17.27;10.88;;;4.40;99.90;;;;;;4988641;28;20058;-72
2023/04/21 05:01:34;;;;;;;17.05;10.48;;;4.40;99.90;;;;;;4993550;28;20080;-74
2023/04/21 05:03:59;;;;;;;18.13;12.40;;;4.40;99.90;;;;;;5015194;28;20026;-74
2023/04/21 05:06:28;;;;;;;21.85;12.07;;;4.40;99.90;;;;;;4987760;28;20026;-76
2023/04/21 05:08:57;;;;;;;19.58;11.77;;;4.40;99.90;;;;;;4994434;28;20212;-76
2023/04/21 05:11:28;;;;;;;17.33;10.40;;;4.50;99.90;;;;;;5008112;28;20030;-75
2023/04/21 05:13:54;;;;;;;18.48;10.32;;;4.40;99.90;;;;;;4992239;28;20034;-75
2023/04/21 05:16:20;;;;;;;15.98;10.23;;;4.50;99.90;;;;;;4988278;28;20088;-73
2023/04/21 05:18:45;;;;;;;20.40;11.48;;;4.50;99.90;;;;;;4994169;28;20058;-75
2023/04/21 05:21:22;;;;;;;18.48;10.57;;;4.50;99.90;;;;;;4992352;28;20011;-77
2023/04/21 05:23:47;;;;;;;15.15;9.75;;;4.50;99.90;;;;;;4993708;28;20026;-76
2023/04/21 05:26:13;;;;;;;15.43;10.23;;;4.50;99.90;;;;;;4989944;28;20033;-78
2023/04/21 05:28:38;;;;;;;16.70;10.07;;;4.40;99.90;;;;;;4994782;28;20030;-78
2023/04/21 05:31:05;;;;;;;20.10;10.98;;;4.40;99.90;;;;;;4991034;28;20023;-75
2023/04/21 05:33:30;;;;;;;16.35;10.50;;;4.40;99.90;;;;;;4989689;28;20030;-75
2023/04/21 05:36:07;;;;;;;17.13;10.98;;;4.40;99.90;;;;;;4998440;28;20034;-78
2023/04/21 05:38:32;;;;;;;18.60;10.70;;;4.40;99.90;;;;;;4996579;28;20549;-78
2023/04/21 05:40:58;;;;;;;17.90;10.90;;;4.40;99.90;;;;;;5011214;28;20033;-78
2023/04/21 05:43:24;;;;;;;20.45;12.10;;;4.40;99.90;;;;;;4990909;28;20026;-79
2023/04/21 05:45:50;;;;;;;19.55;10.65;;;4.40;99.90;;;;;;4991727;28;20026;-77
2023/04/21 05:48:22;;;;;;;22.42;12.77;;;4.40;99.90;;;;;;5005198;28;20047;-77
2023/04/21 05:50:47;;;;;;;19.92;11.55;;;4.40;99.90;;;;;;4990152;28;20034;-76
2023/04/21 05:53:19;;;;;;;19.58;11.43;;;4.50;99.90;;;;;;4986578;28;20045;-76
2023/04/21 05:55:48;;;;;;;18.23;11.95;;;4.50;99.90;;;;;;4994353;28;20030;-76
2023/04/21 05:58:13;;;;;;;25.27;13.38;;;4.50;99.90;;;;;;4992382;28;20037;-75
2023/04/21 06:00:39;;;;;;;22.67;11.55;;;4.60;99.90;;;;;;5005144;28;20383;-80
2023/04/21 06:03:07;;;;;;;21.90;12.20;;;4.60;99.90;;;;;;4989023;28;20026;-77
2023/04/21 06:05:33;;;;;;;22.73;12.93;;;4.60;99.90;;;;;;4991479;28;20023;-78
2023/04/21 06:08:02;;;;;;;21.83;12.60;;;4.60;99.90;;;;;;4986830;28;20041;-77
2023/04/21 06:10:46;;;;;;;20.60;12.25;;;4.70;99.90;;;;;;4994159;28;20026;-79
2023/04/21 06:13:12;;;;;;;22.08;12.55;;;4.70;99.90;;;;;;4991444;28;20022;-78
2023/04/21 06:15:59;;;;;;;26.35;12.38;;;4.70;99.90;;;;;;4993497;28;20148;-78
2023/04/21 06:18:33;;;;;;;19.52;12.00;;;4.70;99.90;;;;;;4996171;28;20038;-79
2023/04/21 06:21:02;;;;;;;22.38;13.25;;;4.70;99.90;;;;;;5009807;28;20042;-80
2023/04/21 06:23:27;;;;;;;23.20;12.60;;;4.70;99.90;;;;;;5002343;28;20033;-79
2023/04/21 06:26:08;;;;;;;23.70;12.80;;;4.70;99.90;;;;;;5001424;28;20090;-78
2023/04/21 06:28:35;;;;;;;25.15;13.95;;;4.70;99.90;;;;;;4994328;28;20073;-79
2023/04/21 06:31:04;;;;;;;22.42;13.15;;;4.70;99.90;;;;;;4992283;28;20025;-78
2023/04/21 06:33:32;;;;;;;25.17;13.85;;;4.80;99.90;;;;;;4990585;28;20041;-78
2023/04/21 06:35:58;;;;;;;25.13;13.38;;;4.80;99.90;;;;;;5015540;28;20030;-80
2023/04/21 06:38:24;;;;;;;21.02;13.27;;;4.90;99.90;;;;;;4993869;28;20398;-79
2023/04/21 06:40:49;;;;;;;21.90;12.85;;;4.90;99.90;;;;;;4990745;28;20026;-79
2023/04/21 06:43:15;;;;;;;24.17;14.07;;;4.90;99.90;;;;;;5023049;28;20022;-79
2023/04/21 06:45:41;;;;;;;21.10;12.38;;;5.00;99.90;;;;;;5004048;28;20113;-79
2023/04/21 06:48:07;;;;;;;22.80;13.55;;;5.00;99.90;;;;;;5005878;28;20022;-79
2023/04/21 06:50:38;;;;;;;22.90;12.95;;;5.00;99.90;;;;;;5006597;28;20038;-78
2023/04/21 06:53:10;;;;;;;21.40;12.70;;;5.10;99.90;;;;;;5016712;28;20034;-79
2023/04/21 06:55:35;;;;;;;21.50;12.68;;;5.10;99.90;;;;;;4998634;28;20033;-79
2023/04/21 06:58:04;;;;;;;19.45;11.63;;;5.10;99.90;;;;;;5003590;28;20061;-79
2023/04/21 07:00:33;;;;;;;17.17;10.93;;;5.10;99.90;;;;;;5016296;28;20026;-77
2023/04/21 07:02:58;;;;;;;19.15;11.15;;;5.20;99.90;;;;;;5008746;28;20081;-80
2023/04/21 07:05:27;;;;;;;20.30;11.98;;;5.20;99.90;;;;;;5029236;28;20400;-79
2023/04/21 07:07:58;;;;;;;21.52;11.82;;;5.20;99.90;;;;;;5007303;28;20087;-79
2023/04/21 07:10:32;;;;;;;18.17;11.27;;;5.30;99.90;;;;;;5005225;28;20125;-79
2023/04/21 07:13:01;;;;;;;16.27;10.73;;;5.30;99.90;;;;;;5001814;28;20025;-79
2023/04/21 07:15:27;;;;;;;16.95;10.00;;;5.30;99.90;;;;;;5019571;28;20033;-80
2023/04/21 07:17:59;;;;;;;16.75;10.23;;;5.40;99.90;;;;;;5004225;28;20499;-79
2023/04/21 07:20:27;;;;;;;17.73;10.80;;;5.40;99.90;;;;;;5003699;28;20026;-79
2023/04/21 07:22:59;;;;;;;13.90;9.43;;;5.50;99.90;;;;;;5001783;28;20054;-78
2023/04/21 07:25:25;;;;;;;16.33;9.27;;;5.50;99.90;;;;;;5003116;28;20042;-79
2023/04/21 07:27:51;;;;;;;18.17;9.60;;;5.50;99.90;;;;;;5004039;28;20038;-80
2023/04/21 07:30:17;;;;;;;15.98;9.10;;;5.60;99.90;;;;;;5004473;28;20109;-80
2023/04/21 07:32:42;;;;;;;17.10;9.90;;;5.60;99.90;;;;;;5004866;28;20220;-80
2023/04/21 07:35:08;;;;;;;18.35;10.30;;;5.70;99.90;;;;;;5001820;28;20465;-80
2023/04/21 07:37:38;;;;;;;17.92;9.90;;;5.70;99.90;;;;;;5003937;28;20033;-80
2023/04/21 07:40:05;;;;;;;13.95;9.05;;;5.70;99.90;;;;;;5008578;28;20112;-78
2023/04/21 07:42:31;;;;;;;18.10;9.65;;;5.70;99.90;;;;;;5008302;28;20046;-78
2023/04/21 07:44:57;;;;;;;15.40;9.00;;;5.70;99.90;;;;;;5006227;28;20027;-79
2023/04/21 07:47:22;;;;;;;19.10;10.25;;;5.80;99.90;;;;;;5011633;28;20037;-77
2023/04/21 07:49:48;;;;;;;22.70;10.15;;;5.80;99.90;;;;;;5023591;28;20101;-78
2023/04/21 07:52:14;;;;;;;16.13;9.45;;;5.80;99.90;;;;;;5018435;28;20052;-78
2023/04/21 07:54:42;;;;;;;17.88;10.48;;;5.90;99.90;;;;;;5005462;28;20030;-79
2023/04/21 07:57:08;;;;;;;20.05;10.18;;;5.90;99.90;;;;;;4997105;28;20030;-78
2023/04/21 07:59:34;;;;;;;16.58;9.52;;;6.00;99.90;;;;;;5005378;28;20023;-77
2023/04/21 08:02:00;;;;;;;17.45;10.10;;;6.10;99.90;;;;;;4999374;28;20538;-78
2023/04/21 08:04:26;;;;;;;17.42;9.82;;;6.10;99.90;;;;;;4999499;28;20023;-77
2023/04/21 08:06:52;;;;;;;22.60;11.00;;;6.30;99.90;;;;;;5001120;28;20407;-79
2023/04/21 08:09:25;;;;;;;17.00;10.55;;;6.30;99.90;;;;;;5018939;28;20037;-79
2023/04/21 08:12:01;;;;;;;17.70;10.45;;;6.40;99.90;;;;;;4999922;28;20176;-76
2023/04/21 08:14:27;;;;;;;18.05;11.05;;;6.50;99.90;;;;;;5007812;28;20030;-78
2023/04/21 08:17:02;;;;;;;14.35;9.57;;;6.60;99.90;;;;;;5003241;28;20030;-79
2023/04/21 08:19:28;;;;;;;20.52;11.07;;;6.70;99.90;;;;;;5010874;28;20028;-80
2023/04/21 08:22:00;;;;;;;18.75;11.05;;;6.80;99.90;;;;;;5012117;28;20054;-80
2023/04/21 08:24:25;;;;;;;17.05;10.27;;;6.80;99.90;;;;;;5022377;28;20026;-79
2023/04/21 08:26:51;;;;;;;15.65;9.75;;;6.90;99.90;;;;;;5000956;28;20159;-78
2023/04/21 08:29:19;;;;;;;16.85;10.38;;;7.00;99.90;;;;;;5004898;28;20068;-78
2023/04/21 08:31:45;;;;;;;17.80;10.65;;;7.00;99.90;;;;;;5014004;28;20035;-79
2023/04/21 08:34:13;;;;;;;20.15;10.75;;;7.10;99.90;;;;;;5004282;28;20104;-79
2023/04/21 08:36:41;;;;;;;18.02;10.82;;;7.20;99.90;;;;;;5014870;28;20068;-79
2023/04/21 08:39:10;;;;;;;19.70;10.75;;;7.30;99.90;;;;;;5026361;28;20094;-80
2023/04/21 08:41:39;;;;;;;18.58;10.35;;;7.40;99.90;;;;;;5007144;28;20022;-78
2023/04/21 08:44:10;;;;;;;18.05;10.93;;;7.50;99.90;;;;;;5022905;28;20030;-79
2023/04/21 08:46:39;;;;;;;15.20;10.10;;;7.60;99.90;;;;;;5006943;28;26824;-79
2023/04/21 08:49:09;;;;;;;17.73;9.48;;;7.70;99.90;;;;;;5005952;28;20076;-80
2023/04/21 08:51:37;;;;;;;18.50;11.18;;;7.80;99.90;;;;;;4998886;28;20043;-78
2023/04/21 08:54:03;;;;;;;19.88;11.63;;;7.90;99.90;;;;;;5001416;28;20424;-79
2023/04/21 08:56:29;;;;;;;18.80;11.05;;;8.00;99.90;;;;;;5003108;28;20077;-77
2023/04/21 08:58:58;;;;;;;16.48;10.48;;;8.10;99.90;;;;;;5007959;28;20046;-80
2023/04/21 09:01:24;;;;;;;21.23;11.07;;;8.20;99.90;;;;;;5023186;28;20092;-78
2023/04/21 09:03:49;;;;;;;21.60;11.38;;;8.30;99.90;;;;;;5008269;28;20031;-80
2023/04/21 09:06:15;;;;;;;16.40;9.90;;;8.40;99.90;;;;;;5027723;28;20042;-78
2023/04/21 09:08:42;;;;;;;16.50;10.70;;;8.50;99.90;;;;;;5006693;28;20030;-79
2023/04/21 09:11:13;;;;;;;16.33;10.80;;;8.60;99.90;;;;;;5005597;28;20045;-80
2023/04/21 09:13:38;;;;;;;19.15;11.10;;;8.60;99.90;;;;;;4998459;28;20054;-80
2023/04/21 09:16:17;;;;;;;16.27;11.13;;;8.70;99.90;;;;;;5001175;28;20041;-79
2023/04/21 09:18:43;;;;;;;15.90;10.23;;;8.80;99.90;;;;;;5010794;28;20279;-78
2023/04/21 09:21:15;;;;;;;13.77;9.18;;;8.90;99.90;;;;;;5000879;28;20118;-79
2023/04/21 09:23:47;;;;;;;14.20;9.30;;;9.00;99.90;;;;;;4995886;28;20019;-79
2023/04/21 09:26:14;;;;;;;14.52;9.65;;;9.10;99.90;;;;;;4995808;28;20026;-79
2023/04/21 09:28:44;;;;;;;13.82;9.45;;;9.20;99.90;;;;;;4995317;28;20436;-81
2023/04/21 09:31:15;;;;;;;16.08;9.85;;;9.30;99.90;;;;;;4999558;28;20197;-78
2023/04/21 09:33:50;;;;;;;15.48;9.18;;;9.30;99.90;;;;;;4999439;28;20041;-78
2023/04/21 09:36:24;;;;;;;13.10;8.77;;;9.40;99.90;;;;;;5018170;28;20034;-80
2023/04/21 09:39:01;;;;;;;13.40;9.07;;;9.50;99.90;;;;;;5012749;28;20045;-77
2023/04/21 09:41:27;;;;;;;13.27;8.65;;;9.70;99.90;;;;;;4992339;28;20391;-79
2023/04/21 09:43:53;;;;;;;12.88;8.38;;;9.70;99.90;;;;;;5011413;28;20030;-80
2023/04/21 09:46:20;;;;;;;12.00;8.40;;;9.80;99.90;;;;;;4998337;28;20142;-79
2023/04/21 09:48:46;;;;;;;10.45;7.50;;;9.90;99.90;;;;;;4994397;28;20029;-80
2023/04/21 09:51:19;;;;;;;12.57;8.68;;;10.00;99.90;;;;;;4997681;28;20394;-79
2023/04/21 09:53:47;;;;;;;15.70;8.52;;;10.00;99.90;;;;;;5001413;28;20058;-79
2023/04/21 09:56:15;;;;;;;15.02;8.88;;;10.10;99.90;;;;;;5003155;28;20121;-79
2023/04/21 09:58:52;;;;;;;11.43;7.45;;;10.20;99.90;;;;;;5015593;28;20026;-79
2023/04/21 10:01:19;;;;;;;12.25;7.85;;;10.30;99.90;;;;;;5014568;28;20078;-80
2023/04/21 10:03:47;;;;;;;15.57;8.63;;;10.30;99.90;;;;;;5016161;28;20210;-77
2023/04/21 10:06:13;;;;;;;9.32;6.72;;;10.40;99.90;;;;;;5009630;28;20094;-77
2023/04/21 10:08:39;;;;;;;10.40;6.57;;;10.50;99.90;;;;;;5007782;28;20042;-79
2023/04/21 10:11:06;;;;;;;10.05;6.10;;;10.60;99.90;;;;;;5026255;28;20022;-78
2023/04/21 10:13:32;;;;;;;17.83;9.60;;;10.60;99.90;;;;;;5028960;28;20037;-78
2023/04/21 10:16:09;;;;;;;7.95;5.38;;;10.70;99.90;;;;;;5027550;28;20023;-81
2023/04/21 10:18:41;;;;;;;11.13;7.15;;;10.80;99.90;;;;;;5000491;28;20030;-82
2023/04/21 10:21:09;;;;;;;8.77;5.80;;;10.90;99.90;;;;;;5001580;28;20030;-81
2023/04/21 10:23:41;;;;;;;11.05;6.35;;;10.90;99.90;;;;;;5010034;28;20114;-81
2023/04/21 10:26:16;;;;;;;10.38;6.45;;;11.00;99.90;;;;;;5002877;28;20032;-79
2023/04/21 10:28:55;;;;;;;11.80;5.97;;;11.00;99.90;;;;;;5000004;28;20108;-78
2023/04/21 10:31:21;;;;;;;12.05;7.13;;;11.10;99.90;;;;;;5007936;28;20039;-79
2023/04/21 10:34:08;;;;;;;10.00;7.28;;;11.20;99.90;;;;;;5005925;28;20037;-78
2023/04/21 10:36:41;;;;;;;9.98;6.50;;;11.20;99.90;;;;;;5005845;28;20098;-78
2023/04/21 10:39:06;;;;;;;14.77;7.45;;;11.30;99.90;;;;;;5029213;28;20026;-77
2023/04/21 10:41:33;;;;;;;10.27;6.90;;;11.40;99.90;;;;;;5002717;28;20022;-78
2023/04/21 10:44:13;;;;;;;10.88;8.05;;;11.50;99.90;;;;;;5003786;28;20379;-79
2023/04/21 10:46:45;;;;;;;11.70;8.15;;;11.70;99.90;;;;;;5008969;23;20050;-74
2023/04/21 10:49:29;;;;;;;11.07;7.15;;;11.80;99.90;;;;;;4990994;28;20039;-73
2023/04/21 10:52:15;;;;;;;10.10;7.25;;;11.90;99.90;;;;;;4996404;28;20030;-72
2023/04/21 10:54:44;;;;;;;12.20;8.05;;;11.90;99.90;;;;;;4998217;28;20030;-72
2023/04/21 10:57:12;;;;;;;11.30;7.57;;;12.00;99.90;;;;;;5006204;28;20550;-72
2023/04/21 10:59:41;;;;;;;14.20;8.18;;;12.10;99.90;;;;;;4991724;28;20018;-72
2023/04/21 11:02:10;;;;;;;13.10;8.15;;;12.20;99.90;;;;;;4998885;28;20105;-72
2023/04/21 11:04:49;;;;;;;9.85;7.15;;;12.30;99.90;;;;;;4994076;28;20498;-73
2023/04/21 11:07:24;;;;;;;11.95;7.53;;;12.30;99.90;;;;;;4994179;28;20029;-73
2023/04/21 11:09:57;;;;;;;10.95;6.93;;;12.30;99.90;;;;;;4997145;28;20029;-73
2023/04/21 11:12:30;;;;;;;8.75;5.93;;;12.40;99.90;;;;;;4997549;28;20022;-73
2023/04/21 11:15:07;;;;;;;8.52;5.70;;;12.50;99.90;;;;;;4999331;28;20057;-73
2023/04/21 11:17:42;;;;;;;8.98;5.93;;;12.60;99.90;;;;;;4992238;28;20097;-73
2023/04/21 11:20:10;;;;;;;10.68;6.13;;;12.60;99.90;;;;;;4997541;28;20076;-73
2023/04/21 11:22:45;;;;;;;10.63;6.80;;;12.70;99.90;;;;;;4997756;28;20034;-72
2023/04/21 11:25:17;;;;;;;11.65;6.03;;;12.80;99.90;;;;;;5001182;28;20018;-73
2023/04/21 11:27:55;;;;;;;8.95;6.28;;;12.90;99.90;;;;;;5000247;28;20088;-73
2023/04/21 11:30:31;;;;;;;9.70;5.80;;;13.00;99.90;;;;;;4995220;28;20064;-73
2023/04/21 11:32:57;;;;;;;9.30;6.53;;;13.00;99.90;;;;;;4994664;28;20029;-73
2023/04/21 11:35:23;;;;;;;7.70;6.07;;;13.10;99.90;;;;;;4990177;28;20086;-73
2023/04/21 11:37:51;;;;;;;8.05;5.78;;;13.10;99.90;;;;;;4996528;28;20030;-72
2023/04/21 11:40:18;;;;;;;8.90;5.82;;;13.10;99.90;;;;;;4997768;28;20418;-73
2023/04/21 11:42:44;;;;;;;8.60;6.30;;;13.20;99.90;;;;;;4997472;28;20125;-73
2023/04/21 11:45:19;;;;;;;8.52;5.90;;;13.20;99.90;;;;;;4996977;28;20103;-73
2023/04/21 11:47:45;;;;;;;10.07;6.65;;;13.30;99.90;;;;;;5011912;28;20034;-73
2023/04/21 11:50:33;;;;;;;11.10;6.97;;;13.30;99.90;;;;;;4989355;28;20022;-72
2023/04/21 11:53:01;;;;;;;13.38;7.60;;;13.40;99.90;;;;;;4993991;28;20053;-73
2023/04/21 11:55:28;;;;;;;10.82;7.65;;;13.40;99.90;;;;;;5013909;28;20065;-73
2023/04/21 11:57:56;;;;;;;12.13;6.88;;;13.50;99.90;;;;;;5000160;28;20046;-74
2023/04/21 12:00:22;;;;;;;12.05;8.63;;;13.60;99.90;;;;;;4996382;28;20026;-73
2023/04/21 12:02:57;;;;;;;12.60;8.73;;;13.70;99.90;;;;;;4994565;28;20065;-74
2023/04/21 12:05:23;;;;;;;11.82;8.27;;;13.80;99.90;;;;;;4996350;28;20069;-73
2023/04/21 12:07:58;;;;;;;16.58;8.52;;;13.80;99.90;;;;;;4995442;28;20487;-73
2023/04/21 12:10:35;;;;;;;14.77;7.70;;;13.80;99.90;;;;;;4994746;28;20338;-73
2023/04/21 12:13:10;;;;;;;13.27;8.10;;;13.90;99.90;;;;;;4993601;28;20065;-73
2023/04/21 12:15:38;;;;;;;12.45;8.18;;;13.90;99.90;;;;;;4995835;28;20487;-74
2023/04/21 12:18:12;;;;;;;13.32;6.95;;;14.00;99.90;;;;;;4997655;28;20391;-74
2023/04/21 12:20:59;;;;;;;11.65;7.55;;;14.00;99.90;;;;;;4993315;28;20479;-73
2023/04/21 12:23:25;;;;;;;12.45;7.63;;;14.10;99.90;;;;;;4992840;28;20031;-74
2023/04/21 12:25:51;;;;;;;11.25;7.57;;;14.10;99.90;;;;;;4992171;28;20038;-73
2023/04/21 12:28:19;;;;;;;9.95;7.03;;;14.20;99.90;;;;;;4997821;28;20061;-73
2023/04/21 12:30:48;;;;;;;9.90;6.47;;;14.30;99.90;;;;;;4997730;28;20125;-73
2023/04/21 12:33:20;;;;;;;10.40;6.82;;;14.30;99.90;;;;;;4994014;28;20751;-74
2023/04/21 12:35:48;;;;;;;10.93;6.70;;;14.40;99.90;;;;;;4996738;28;20034;-73
2023/04/21 12:38:14;;;;;;;9.30;6.07;;;14.50;99.90;;;;;;4997070;28;20037;-73
2023/04/21 12:40:46;;;;;;;9.35;6.45;;;14.60;99.90;;;;;;4995213;28;20026;-73
2023/04/21 12:43:11;;;;;;;9.93;6.80;;;14.70;99.90;;;;;;4989138;28;20023;-73
2023/04/21 12:45:37;;;;;;;8.15;5.55;;;14.70;99.90;;;;;;4990622;28;20041;-74
2023/04/21 12:48:06;;;;;;;10.00;6.18;;;14.70;99.90;;;;;;5008216;28;20137;-73
2023/04/21 12:50:32;;;;;;;10.50;6.63;;;14.70;99.90;;;;;;4994415;28;20065;-74
2023/04/21 12:53:00;;;;;;;12.32;6.10;;;14.80;99.90;;;;;;4992186;28;20061;-73
2023/04/21 12:55:36;;;;;;;9.70;5.60;;;15.00;99.90;;;;;;4997117;28;20021;-74